Burwell, NE

11:08 PM CDT on August 29, 2016 (GMT -0500)
Sharp | | Change Station

Elev 2070 ft 41.62 °N, 98.95 °W | Updated 15 minutes ago

Partly Cloudy
Partly Cloudy
69 °F
Feels Like 69 °F
N
6
Wind Variable Wind from SE

Today
High -- | Low -- °F
--% Chance of Precip.
Yesterday
High -- | Low -- °F
Precip. -- in
Pressure 30.18 in
Visibility 10.0 miles
Clouds Few 11000 ft
Dew Point 64 °F
Humidity 84%
Rainfall 0.00 in
Snow Depth Not available.
6:59 AM 8:13 PM
Waning Crescent, 5% visible
METAR KODX 300353Z AUTO 13005KT 10SM FEW110 21/18 A3020 RMK AO2 SLP218 T02060178
Pressure 30.18 in
Visibility 10.0 miles
Clouds Few 11000 ft
Dew Point 64 °F
Humidity 84%
Rainfall 0.00 in
Snow Depth Not available.
6:59 AM 8:13 PM
Waning Crescent, 5% visible
METAR KODX 300353Z AUTO 13005KT 10SM FEW110 21/18 A3020 RMK AO2 SLP218 T02060178

10-Day Weather Forecast

Almanac

Astronomy

Aug. 29, 2016 Rise Set
Actual Time
Civil Twilight
Nautical Twilight
Astronomical Twilight
Moon
Length of Visible Light
Length of Day
Tomorrow will be .
, % of the Moon is Illuminated

Today's Extremes

State Highs State Lows

Community

WunderPhotos

Upload Photos

1,935,785 photos uploaded!

WunderBlog® & News

Nearby

Air Quality

  Air Quality AQ Index Pollutant
Not available.

Snow Depth

Station Depth Elevation

Earthquake Activity

City Distance Mag. Time & Date
Minimum magnitude displayed is 2.5.

Coastal Water Temperatures

Place Temperature

Stations

Nearby Weather Stations

Station Location Temp. Windchill Dew Point Humidity Wind Precip. Elev Updated Type
                   

Watches & Warnings

There are currently no watches in effect.